createdAt,value
2022-09-27T00:00:19.667Z,98824.00
2022-09-27T00:03:13.119Z,98822.80
2022-09-27T00:05:45.869Z,98822.40
2022-09-27T00:08:20.385Z,98818.00
2022-09-27T00:11:02.173Z,98820.00
2022-09-27T00:13:35.226Z,98813.80
2022-09-27T00:16:08.502Z,98807.00
2022-09-27T00:18:41.439Z,98803.80
2022-09-27T00:21:16.440Z,98805.00
2022-09-27T00:23:49.478Z,98804.60
2022-09-27T00:26:22.240Z,98804.40
2022-09-27T00:28:55.248Z,98804.00
2022-09-27T00:31:30.874Z,98790.20
2022-09-27T00:34:06.377Z,98786.00
2022-09-27T00:36:39.276Z,98779.00
2022-09-27T00:39:12.229Z,98777.40
2022-09-27T00:41:45.628Z,98770.20
2022-09-27T00:44:56.566Z,98772.20
2022-09-27T00:47:34.374Z,98765.20
2022-09-27T00:50:15.445Z,98756.60
2022-09-27T00:52:58.670Z,98760.00
2022-09-27T00:55:37.273Z,98755.40
2022-09-27T00:58:10.604Z,98767.20
2022-09-27T01:00:49.411Z,98774.80
2022-09-27T01:03:33.459Z,98777.00
2022-09-27T01:06:07.888Z,98770.20
2022-09-27T01:08:40.678Z,98767.60
2022-09-27T01:11:27.672Z,98756.00
2022-09-27T01:14:19.920Z,98750.80
2022-09-27T01:17:03.661Z,98745.60
2022-09-27T01:19:59.888Z,98736.20
2022-09-27T01:22:39.539Z,98726.00
2022-09-27T01:25:39.260Z,98728.80
2022-09-27T01:28:28.508Z,98727.20
2022-09-27T01:31:10.383Z,98720.80
2022-09-27T01:33:54.965Z,98719.40
2022-09-27T01:36:39.628Z,98713.00
2022-09-27T01:39:32.899Z,98705.60
2022-09-27T01:42:31.269Z,98700.40
2022-09-27T01:45:10.572Z,98703.40
2022-09-27T01:47:57.740Z,98693.40
2022-09-27T01:50:57.946Z,98688.20
2022-09-27T01:53:35.800Z,98687.00
2022-09-27T01:56:41.748Z,98684.00
2022-09-27T01:59:29.874Z,98673.80
2022-09-27T02:02:20.488Z,98672.00
2022-09-27T02:05:18.223Z,98671.80
2022-09-27T02:07:57.867Z,98668.40
2022-09-27T02:10:37.093Z,98670.80
2022-09-27T02:13:21.858Z,98665.20
2022-09-27T02:16:04.940Z,98658.20
2022-09-27T02:18:55.663Z,98651.00
2022-09-27T02:21:42.702Z,98645.60
2022-09-27T02:24:25.107Z,98637.00
2022-09-27T02:27:08.100Z,98636.40
2022-09-27T02:29:46.657Z,98633.80
2022-09-27T02:32:19.543Z,98639.40
2022-09-27T02:34:54.939Z,98630.60
2022-09-27T02:37:27.965Z,98620.60
2022-09-27T02:40:01.096Z,98618.00
2022-09-27T02:42:35.181Z,98617.20
2022-09-27T02:45:10.552Z,98611.40
2022-09-27T02:48:10.735Z,98609.80
2022-09-27T02:50:55.398Z,98608.00
2022-09-27T02:53:49.144Z,98610.00
2022-09-27T02:56:56.084Z,98608.20
2022-09-27T03:00:07.650Z,98604.60
2022-09-27T03:03:00.955Z,98603.80
2022-09-27T03:05:39.527Z,98608.60
2022-09-27T03:08:13.949Z,98599.20
2022-09-27T03:10:47.036Z,98600.60
2022-09-27T03:13:19.712Z,98605.40
2022-09-27T03:15:52.502Z,98605.40
2022-09-27T03:18:25.089Z,98607.40
2022-09-27T03:21:16.595Z,98603.40
2022-09-27T03:23:49.477Z,98596.80
2022-09-27T03:26:22.730Z,98592.40
2022-09-27T03:28:55.669Z,98591.60
2022-09-27T03:31:28.656Z,98586.40
2022-09-27T03:34:20.080Z,98584.60
2022-09-27T03:36:52.909Z,98576.80
2022-09-27T03:39:25.648Z,98579.40
2022-09-27T03:41:58.306Z,98568.40
2022-09-27T03:44:30.992Z,98572.80
2022-09-27T03:47:03.779Z,98570.00
2022-09-27T03:49:36.550Z,98562.80
2022-09-27T03:52:09.129Z,98560.60
2022-09-27T03:54:42.996Z,98558.40
2022-09-27T03:57:15.717Z,98557.60
2022-09-27T03:59:48.702Z,98554.00
2022-09-27T04:02:42.780Z,98548.00
2022-09-27T04:05:42.861Z,98550.60
2022-09-27T04:08:21.275Z,98555.80
2022-09-27T04:10:54.037Z,98549.40
2022-09-27T04:13:26.889Z,98546.60
2022-09-27T04:16:03.162Z,98551.20
2022-09-27T04:18:52.522Z,98546.40
2022-09-27T04:21:51.641Z,98541.20
2022-09-27T04:24:25.530Z,98532.60
2022-09-27T04:27:13.399Z,98539.00
2022-09-27T04:29:46.760Z,98537.60
2022-09-27T04:32:43.817Z,98535.00
2022-09-27T04:35:53.154Z,98540.60
2022-09-27T04:38:24.544Z,98540.20
2022-09-27T04:40:57.458Z,98537.60
2022-09-27T04:43:30.886Z,98543.60
2022-09-27T04:46:03.561Z,98543.80
2022-09-27T04:48:36.347Z,98543.40
2022-09-27T04:51:10.844Z,98538.20
2022-09-27T04:53:44.264Z,98540.20
2022-09-27T04:56:18.122Z,98537.00
2022-09-27T04:58:50.956Z,98525.60
2022-09-27T05:01:23.699Z,98525.60
2022-09-27T05:04:05.966Z,98523.20
2022-09-27T05:06:39.952Z,98523.20
2022-09-27T05:09:23.084Z,98519.40
2022-09-27T05:11:58.341Z,98531.00
2022-09-27T05:14:30.999Z,98525.40
2022-09-27T05:17:18.951Z,98524.20
2022-09-27T05:20:14.308Z,98527.20
2022-09-27T05:22:57.579Z,98523.20
2022-09-27T05:25:31.506Z,98525.20
2022-09-27T05:28:05.660Z,98519.40
2022-09-27T05:30:38.527Z,98524.60
2022-09-27T05:33:15.281Z,98514.00
2022-09-27T05:36:04.726Z,98516.20
2022-09-27T05:38:37.640Z,98514.80
2022-09-27T05:41:11.250Z,98517.40
2022-09-27T05:43:46.684Z,98521.80
2022-09-27T05:46:19.928Z,98515.80
2022-09-27T05:48:53.070Z,98512.80
2022-09-27T05:51:25.828Z,98517.20
2022-09-27T05:53:59.447Z,98514.00
2022-09-27T05:56:33.644Z,98515.40
2022-09-27T05:59:12.363Z,98508.80
2022-09-27T06:02:03.946Z,98502.00
2022-09-27T06:04:57.154Z,98493.00
2022-09-27T06:07:49.919Z,98484.80
2022-09-27T06:10:29.786Z,98488.00
2022-09-27T06:13:06.330Z,98484.20
2022-09-27T06:15:42.986Z,98489.20
2022-09-27T06:18:18.388Z,98479.00
2022-09-27T06:20:53.793Z,98469.80
2022-09-27T06:23:27.188Z,98462.60
2022-09-27T06:26:05.287Z,98465.40
2022-09-27T06:28:57.882Z,98468.00
2022-09-27T06:31:30.689Z,98476.20
2022-09-27T06:34:29.607Z,98484.80
2022-09-27T06:37:02.312Z,98494.20
2022-09-27T06:39:35.295Z,98502.60
2022-09-27T06:42:30.649Z,98504.60
2022-09-27T06:45:21.508Z,98497.80
2022-09-27T06:48:17.326Z,98492.60
2022-09-27T06:51:12.115Z,98492.20
2022-09-27T06:53:45.208Z,98495.60
2022-09-27T06:56:18.495Z,98503.40
2022-09-27T06:59:14.300Z,98492.40
2022-09-27T07:01:51.774Z,98488.60
2022-09-27T07:04:25.619Z,98491.60
2022-09-27T07:07:10.893Z,98485.20
2022-09-27T07:09:47.025Z,98485.80
2022-09-27T07:12:24.857Z,98481.20
2022-09-27T07:14:58.697Z,98483.40
2022-09-27T07:17:31.448Z,98485.40
2022-09-27T07:20:05.077Z,98481.80
2022-09-27T07:22:44.286Z,98484.80
2022-09-27T07:25:18.186Z,98486.80
2022-09-27T07:27:52.818Z,98485.20
2022-09-27T07:30:26.056Z,98480.00
2022-09-27T07:33:04.112Z,98487.00
2022-09-27T07:35:40.180Z,98483.80
2022-09-27T07:38:14.591Z,98484.00
2022-09-27T07:40:47.703Z,98485.60
2022-09-27T07:43:20.888Z,98476.00
2022-09-27T07:45:53.905Z,98475.00
2022-09-27T07:48:39.549Z,98480.20
2022-09-27T07:51:30.757Z,98482.80
2022-09-27T07:54:09.789Z,98476.60
2022-09-27T07:56:42.468Z,98477.80
2022-09-27T07:59:17.298Z,98481.20
2022-09-27T08:01:50.986Z,98485.40
2022-09-27T08:04:23.792Z,98486.60
2022-09-27T08:06:57.433Z,98481.80
2022-09-27T08:09:30.485Z,98478.80
2022-09-27T08:12:04.594Z,98473.60
2022-09-27T08:14:42.945Z,98477.20
2022-09-27T08:17:18.751Z,98474.60
2022-09-27T08:20:24.532Z,98468.80
2022-09-27T08:23:07.651Z,98464.00
2022-09-27T08:25:44.138Z,98458.20
2022-09-27T08:28:39.722Z,98459.20
2022-09-27T08:31:25.717Z,98463.20
2022-09-27T08:34:02.103Z,98459.40
2022-09-27T08:36:36.497Z,98463.80
2022-09-27T08:39:09.548Z,98466.60
2022-09-27T08:41:56.322Z,98473.40
2022-09-27T08:44:40.045Z,98473.40
2022-09-27T08:47:25.498Z,98479.20
2022-09-27T08:50:04.440Z,98481.20
2022-09-27T08:52:41.429Z,98485.00
2022-09-27T08:55:27.107Z,98485.60
2022-09-27T08:58:01.651Z,98480.20
2022-09-27T09:00:35.536Z,98474.40
2022-09-27T09:03:11.460Z,98471.60
2022-09-27T09:05:44.358Z,98474.40
2022-09-27T09:08:36.452Z,98477.80
2022-09-27T09:11:44.014Z,98481.60
2022-09-27T09:14:36.048Z,98488.20
2022-09-27T09:17:22.472Z,98486.00
2022-09-27T09:20:33.831Z,98477.00
2022-09-27T09:23:27.226Z,98478.60
2022-09-27T09:26:09.708Z,98473.80
2022-09-27T09:29:02.931Z,98471.60
2022-09-27T09:31:44.451Z,98465.20
2022-09-27T09:34:26.053Z,98461.00
2022-09-27T09:37:04.845Z,98452.00
2022-09-27T09:39:44.452Z,98451.60
2022-09-27T09:42:24.774Z,98446.60
2022-09-27T09:45:04.922Z,98444.20
2022-09-27T09:47:44.055Z,98445.20
2022-09-27T09:50:27.179Z,98445.20
2022-09-27T09:53:06.209Z,98442.60
2022-09-27T09:55:42.722Z,98441.20
2022-09-27T09:58:29.692Z,98444.00
2022-09-27T10:01:22.447Z,98437.80
2022-09-27T10:03:57.322Z,98440.40
2022-09-27T10:06:32.175Z,98436.40
2022-09-27T10:09:05.602Z,98432.80
2022-09-27T10:11:49.436Z,98429.60
2022-09-27T10:14:27.965Z,98422.40
2022-09-27T10:17:11.389Z,98420.80
2022-09-27T10:19:44.478Z,98424.00
2022-09-27T10:22:25.256Z,98417.40
2022-09-27T10:25:03.993Z,98422.80
2022-09-27T10:27:57.948Z,98417.00
2022-09-27T10:30:38.719Z,98420.20
2022-09-27T10:33:21.154Z,98413.80
2022-09-27T10:35:58.828Z,98415.40
2022-09-27T10:38:37.668Z,98410.60
2022-09-27T10:41:35.212Z,98406.00
2022-09-27T10:44:28.833Z,98414.20
2022-09-27T10:47:22.989Z,98406.40
2022-09-27T10:50:46.085Z,98412.20
2022-09-27T10:53:30.946Z,98420.00
2022-09-27T10:56:07.211Z,98424.40
2022-09-27T10:58:41.354Z,98429.00
2022-09-27T11:01:17.589Z,98426.00
2022-09-27T11:04:22.499Z,98424.60
2022-09-27T11:07:07.508Z,98426.60
2022-09-27T11:09:53.123Z,98424.60
2022-09-27T11:12:28.367Z,98428.20
2022-09-27T11:15:06.858Z,98428.80
2022-09-27T11:17:54.878Z,98428.00
2022-09-27T11:20:37.549Z,98429.20
2022-09-27T11:23:33.253Z,98429.40
2022-09-27T11:26:26.612Z,98426.40
2022-09-27T11:29:14.764Z,98421.40
2022-09-27T11:32:25.736Z,98417.60
2022-09-27T11:35:37.656Z,98416.20
2022-09-27T11:38:41.232Z,98409.20
2022-09-27T11:41:39.005Z,98404.00
2022-09-27T11:45:07.877Z,98401.80
2022-09-27T11:47:57.439Z,98394.20
2022-09-27T11:51:11.190Z,98391.80
2022-09-27T11:54:05.626Z,98388.20
2022-09-27T11:56:51.103Z,98385.40
2022-09-27T11:59:50.701Z,98379.20
2022-09-27T12:02:52.506Z,98374.20
2022-09-27T12:05:37.819Z,98375.80
2022-09-27T12:08:29.978Z,98382.60
2022-09-27T12:11:10.264Z,98381.00
2022-09-27T12:13:44.167Z,98376.40
2022-09-27T12:16:20.404Z,98375.60
2022-09-27T12:18:56.472Z,98374.00
2022-09-27T12:21:57.886Z,98372.60
2022-09-27T12:24:32.248Z,98375.40
2022-09-27T12:27:26.735Z,98377.40
2022-09-27T12:30:01.051Z,98374.20
2022-09-27T12:32:45.378Z,98373.40
2022-09-27T12:35:23.252Z,98370.40
2022-09-27T12:38:02.432Z,98371.00
2022-09-27T12:40:40.045Z,98372.20
2022-09-27T12:43:20.833Z,98376.00
2022-09-27T12:46:42.053Z,98377.20
2022-09-27T12:49:22.788Z,98380.80
2022-09-27T12:52:00.741Z,98369.80
2022-09-27T12:55:25.286Z,98372.00
2022-09-27T12:58:28.686Z,98374.00
2022-09-27T13:01:12.453Z,98372.20
2022-09-27T13:04:22.957Z,98370.20
2022-09-27T13:07:27.755Z,98370.40
2022-09-27T13:10:31.678Z,98371.80
2022-09-27T13:13:06.992Z,98367.20
2022-09-27T13:15:41.039Z,98365.00
2022-09-27T13:18:51.560Z,98355.80
2022-09-27T13:22:01.330Z,98361.00
2022-09-27T13:24:53.854Z,98358.40
2022-09-27T13:27:46.740Z,98357.40
2022-09-27T13:30:51.946Z,98359.40
2022-09-27T13:33:45.896Z,98351.80
2022-09-27T13:36:34.115Z,98354.20
2022-09-27T13:39:24.286Z,98349.20
2022-09-27T13:42:38.848Z,98347.00
2022-09-27T13:45:29.626Z,98350.00
2022-09-27T13:48:10.394Z,98344.80
2022-09-27T13:50:49.449Z,98343.60
2022-09-27T13:53:32.958Z,98342.40
2022-09-27T13:56:08.223Z,98344.20
2022-09-27T13:58:53.949Z,98336.40
2022-09-27T14:01:56.833Z,98329.00
2022-09-27T14:04:42.557Z,98331.60
2022-09-27T14:07:24.354Z,98330.40
2022-09-27T14:10:00.650Z,98327.60
2022-09-27T14:12:39.751Z,98324.40
2022-09-27T14:15:23.078Z,98327.00
2022-09-27T14:17:56.808Z,98328.80
2022-09-27T14:20:43.390Z,98334.00
2022-09-27T14:23:48.733Z,98343.00
2022-09-27T14:26:29.467Z,98340.60
2022-09-27T14:29:02.074Z,98343.80
2022-09-27T14:31:39.455Z,98344.60
2022-09-27T14:34:21.468Z,98336.60
2022-09-27T14:37:12.784Z,98338.00
2022-09-27T14:40:08.544Z,98334.40
2022-09-27T14:42:41.446Z,98330.40
2022-09-27T14:45:24.154Z,98333.20
2022-09-27T14:47:58.934Z,98335.20
2022-09-27T14:50:33.660Z,98336.60
2022-09-27T14:53:19.764Z,98341.40
2022-09-27T14:55:54.370Z,98342.60
2022-09-27T14:58:45.958Z,98340.20
2022-09-27T15:01:22.166Z,98339.20
2022-09-27T15:03:54.922Z,98350.20
2022-09-27T15:06:28.264Z,98349.40
2022-09-27T15:09:01.308Z,98345.60
2022-09-27T15:11:35.045Z,98349.60
2022-09-27T15:14:08.469Z,98352.00
2022-09-27T15:16:42.445Z,98356.60
2022-09-27T15:19:24.443Z,98354.60
2022-09-27T15:21:58.620Z,98354.20
2022-09-27T15:24:47.678Z,98349.80
2022-09-27T15:27:23.471Z,98351.40
2022-09-27T15:29:59.947Z,98353.20
2022-09-27T15:32:32.826Z,98352.60
2022-09-27T15:35:20.044Z,98353.20
2022-09-27T15:37:53.850Z,98359.60
2022-09-27T15:41:05.936Z,98355.40
2022-09-27T15:43:42.368Z,98355.00
2022-09-27T15:46:37.449Z,98358.40
2022-09-27T15:49:33.847Z,98364.80
2022-09-27T15:52:07.964Z,98365.00
2022-09-27T15:54:40.655Z,98361.00
2022-09-27T15:57:15.182Z,98368.00
2022-09-27T15:59:48.294Z,98369.00
2022-09-27T16:02:22.169Z,98370.20
2022-09-27T16:04:55.102Z,98372.80
2022-09-27T16:07:27.843Z,98372.00
2022-09-27T16:10:00.708Z,98373.40
2022-09-27T16:12:33.420Z,98364.40
2022-09-27T16:15:07.351Z,98372.60
2022-09-27T16:17:42.880Z,98379.80
2022-09-27T16:20:23.357Z,98378.80
2022-09-27T16:22:57.007Z,98381.00
2022-09-27T16:25:29.812Z,98383.80
2022-09-27T16:28:04.832Z,98388.80
2022-09-27T16:30:37.739Z,98396.80
2022-09-27T16:33:10.830Z,98433.40
2022-09-27T16:35:44.634Z,98425.80
2022-09-27T16:38:18.165Z,98435.00
2022-09-27T16:40:50.957Z,98422.80
2022-09-27T16:43:27.659Z,98436.80
2022-09-27T16:46:09.245Z,98438.40
2022-09-27T16:48:42.169Z,98434.80
2022-09-27T16:51:37.164Z,98435.80
2022-09-27T16:54:10.683Z,98440.80
2022-09-27T16:56:43.746Z,98445.20
2022-09-27T16:59:16.607Z,98444.80
2022-09-27T17:01:50.020Z,98448.20
2022-09-27T17:04:23.220Z,98446.80
2022-09-27T17:06:56.501Z,98455.60
2022-09-27T17:09:29.400Z,98456.40
2022-09-27T17:12:07.635Z,98452.60
2022-09-27T17:14:44.466Z,98450.00
2022-09-27T17:17:17.510Z,98451.80
2022-09-27T17:19:50.562Z,98461.80
2022-09-27T17:22:23.552Z,98470.20
2022-09-27T17:24:57.394Z,98474.60
2022-09-27T17:27:31.925Z,98472.80
2022-09-27T17:30:04.996Z,98471.80
2022-09-27T17:32:38.892Z,98475.40
2022-09-27T17:35:12.889Z,98468.40
2022-09-27T17:37:46.496Z,98471.40
2022-09-27T17:40:19.407Z,98470.40
2022-09-27T17:42:52.988Z,98473.60
2022-09-27T17:45:25.969Z,98475.40
2022-09-27T17:48:16.770Z,98477.40
2022-09-27T17:50:52.624Z,98481.80
2022-09-27T17:53:26.054Z,98488.00
2022-09-27T17:56:04.760Z,98488.20
2022-09-27T17:58:37.528Z,98492.40
2022-09-27T18:01:10.844Z,98497.80
2022-09-27T18:03:44.809Z,98496.80
2022-09-27T18:06:19.137Z,98500.80
2022-09-27T18:08:52.199Z,98498.40
2022-09-27T18:11:29.102Z,98498.80
2022-09-27T18:14:02.854Z,98501.80
2022-09-27T18:16:39.896Z,98500.20
2022-09-27T18:19:14.896Z,98502.00
2022-09-27T18:21:48.433Z,98509.00
2022-09-27T18:24:21.523Z,98513.80
2022-09-27T18:26:56.402Z,98510.60
2022-09-27T18:29:30.672Z,98509.00
2022-09-27T18:32:05.411Z,98508.60
2022-09-27T18:34:40.228Z,98515.60
2022-09-27T18:37:13.326Z,98515.00
2022-09-27T18:39:46.824Z,98507.80
2022-09-27T18:42:20.113Z,98511.40
2022-09-27T18:44:53.099Z,98518.00
2022-09-27T18:47:26.137Z,98517.80
2022-09-27T18:49:58.977Z,98515.60
2022-09-27T18:52:31.856Z,98520.20
2022-09-27T18:55:04.657Z,98522.80
2022-09-27T18:57:37.932Z,98526.80
2022-09-27T19:00:14.408Z,98532.60
2022-09-27T19:02:50.320Z,98533.80
2022-09-27T19:05:23.145Z,98538.40
2022-09-27T19:07:55.925Z,98538.40
2022-09-27T19:10:28.838Z,98541.60
2022-09-27T19:13:01.693Z,98542.80
2022-09-27T19:15:35.293Z,98539.40
2022-09-27T19:18:08.892Z,98529.80
2022-09-27T19:20:41.780Z,98537.40
2022-09-27T19:23:14.764Z,98544.40
2022-09-27T19:25:47.445Z,98541.60
2022-09-27T19:28:21.389Z,98547.20
2022-09-27T19:30:54.689Z,98549.80
2022-09-27T19:33:27.671Z,98545.80
2022-09-27T19:36:04.956Z,98554.60
2022-09-27T19:38:39.350Z,98557.20
2022-09-27T19:41:14.280Z,98555.60
2022-09-27T19:43:51.278Z,98551.60
2022-09-27T19:46:26.374Z,98558.40
2022-09-27T19:48:59.483Z,98559.00
2022-09-27T19:51:33.546Z,98553.80
2022-09-27T19:54:06.979Z,98551.60
2022-09-27T19:56:39.787Z,98547.00
2022-09-27T19:59:13.536Z,98548.80
2022-09-27T20:01:46.510Z,98553.20
2022-09-27T20:04:19.562Z,98554.60
2022-09-27T20:06:52.449Z,98554.00
2022-09-27T20:09:25.230Z,98560.00
2022-09-27T20:12:00.063Z,98560.40
2022-09-27T20:14:32.738Z,98561.60
2022-09-27T20:17:05.428Z,98551.80
2022-09-27T20:19:39.191Z,98554.00
2022-09-27T20:22:11.999Z,98555.00
2022-09-27T20:24:44.681Z,98551.40
2022-09-27T20:27:17.975Z,98551.60
2022-09-27T20:29:50.758Z,98549.00
2022-09-27T20:32:27.706Z,98550.60
2022-09-27T20:35:01.863Z,98559.60
2022-09-27T20:37:34.844Z,98555.20
2022-09-27T20:40:09.438Z,98553.80
2022-09-27T20:42:42.148Z,98557.20
2022-09-27T20:45:15.318Z,98551.00
2022-09-27T20:47:48.124Z,98556.80
2022-09-27T20:50:20.798Z,98553.20
2022-09-27T20:52:53.724Z,98546.40
2022-09-27T20:55:26.776Z,98547.60
2022-09-27T20:57:59.603Z,98555.20
2022-09-27T21:00:32.417Z,98556.40
2022-09-27T21:03:06.246Z,98556.60
2022-09-27T21:05:39.332Z,98555.80
2022-09-27T21:08:12.016Z,98553.20
2022-09-27T21:10:48.051Z,98552.20
2022-09-27T21:13:23.674Z,98554.40
2022-09-27T21:16:00.522Z,98562.40
2022-09-27T21:18:33.730Z,98566.20
2022-09-27T21:21:09.156Z,98559.00
2022-09-27T21:23:44.930Z,98565.80
2022-09-27T21:26:20.208Z,98572.80
2022-09-27T21:28:55.129Z,98569.40
2022-09-27T21:31:29.964Z,98574.40
2022-09-27T21:34:04.979Z,98573.80
2022-09-27T21:36:39.975Z,98578.60
2022-09-27T21:39:15.722Z,98577.80
2022-09-27T21:41:48.598Z,98582.80
2022-09-27T21:44:21.382Z,98579.00
2022-09-27T21:46:54.421Z,98582.00
2022-09-27T21:49:27.214Z,98577.60
2022-09-27T21:52:00.357Z,98576.80
2022-09-27T21:54:33.124Z,98576.60
2022-09-27T21:57:06.729Z,98573.00
2022-09-27T21:59:39.438Z,98574.20
2022-09-27T22:02:12.236Z,98573.80
2022-09-27T22:04:45.009Z,98577.40
2022-09-27T22:07:18.573Z,98577.60
2022-09-27T22:09:51.353Z,98580.80
2022-09-27T22:12:24.134Z,98577.60
2022-09-27T22:14:57.119Z,98578.40
2022-09-27T22:17:29.819Z,98580.80
2022-09-27T22:20:03.078Z,98578.80
2022-09-27T22:22:36.183Z,98584.80
2022-09-27T22:25:10.913Z,98581.20
2022-09-27T22:27:43.487Z,98578.00
2022-09-27T22:30:18.270Z,98581.80
2022-09-27T22:32:50.895Z,98577.00
2022-09-27T22:35:23.754Z,98575.60
2022-09-27T22:37:56.462Z,98570.20
2022-09-27T22:40:29.471Z,98572.00
2022-09-27T22:43:02.533Z,98572.80
2022-09-27T22:45:35.221Z,98568.00
2022-09-27T22:48:08.248Z,98562.60
2022-09-27T22:50:41.186Z,98562.60
2022-09-27T22:53:14.190Z,98560.00
2022-09-27T22:55:58.853Z,98560.20
2022-09-27T22:58:36.747Z,98561.80
2022-09-27T23:01:16.686Z,98559.20
2022-09-27T23:03:50.158Z,98556.60
2022-09-27T23:06:24.066Z,98558.80
2022-09-27T23:08:58.379Z,98563.60
2022-09-27T23:11:33.455Z,98567.00
2022-09-27T23:14:09.156Z,98565.40
2022-09-27T23:16:43.006Z,98565.60
2022-09-27T23:19:16.709Z,98566.80
2022-09-27T23:21:50.522Z,98564.40
2022-09-27T23:24:23.939Z,98568.00
2022-09-27T23:27:10.528Z,98562.80
2022-09-27T23:29:44.132Z,98566.00
2022-09-27T23:32:17.106Z,98569.60
2022-09-27T23:34:49.901Z,98563.60
2022-09-27T23:37:22.485Z,98558.40
2022-09-27T23:39:55.250Z,98560.40
2022-09-27T23:42:28.365Z,98557.80
2022-09-27T23:45:01.430Z,98551.40
2022-09-27T23:47:34.314Z,98553.80
2022-09-27T23:50:08.933Z,98555.00
2022-09-27T23:52:41.925Z,98557.20
2022-09-27T23:55:14.919Z,98559.40
2022-09-27T23:57:47.902Z,98557.60
